Main page
METAR-TAF:

METAR-TAF

Airports :

Lydd Airport

Lydd, England

latitude: 50-57N, longitude: 000-56E, elevation: 3 m

Current weather observation

The report was made 36 minutes ago, at 01:20 UTC
Wind 24 kt from the East
Temperature 7°C
Humidity 66%
Pressure 1023 hPa
Visibility 10 km or more

METAR: EGMD 190120Z AUTO 08024KT 9999 NCD 07/01 Q1023

Time: 01:56 (01:56 UTC)

Forecast

The report was made 2 hours and 53 minutes ago, at 23:03 UTC
Forecast valid from 19 at 00 UTC to 19 at 09 UTC
Wind 22 kt from the East/Northeast
Visibility 10 km or more
no clouds below 1500 m and no cumulonimbus
Probability 30% :
Temporary
from 19 at 00 UTC to 19 at 09 UTC
Wind 25 kt from the East with gusts up to 35 kt
Becoming
from 19 at 03 UTC to 19 at 06 UTC
Broken clouds at a height of 2200 ft
Probability 30% :
Temporary
from 19 at 07 UTC to 19 at 09 UTC
Visibility: 8000 m
light rain showers

TAF: EGMD 182303Z 1900/1909 07022KT CAVOK PROB30 TEMPO 1900/1909 08025G35KT BECMG 1903/1906 BKN022 PROB30 TEMPO 1907/1909 8000 -SHRA

Weather observations and forecasts of more than 4000 airports (METAR and TAF reports).

The available stations are represented by yellow and red dots on the map.

Hover mouse over dot to see the name of the station.

Then click to see weather observations and forecasts.

To change the map : click on the green buttons with a black cross to zoom in, on the green button with a dash to zoom out, or on the green arrows for adjacent maps.


METAR-TAF: